Time,TemperatureF,DewpointF,PressureIn,WindDirection,WindDirectionDegrees,WindSpeedMPH,WindSpeedGustMPH,Humidity,HourlyPrecipIn,Conditions,Clouds,dailyrainin,SoftwareType,DateUTC
2013-12-18 00:01:00,14.9,12.2,29.89,East,97,0.0,0.0,89,0.00,CLR,,0.00,WeatherDisplay:10.37,2013-12-18 05:01:00,
2013-12-18 00:02:00,14.8,12.1,29.89,ENE,72,0.0,0.0,89,0.00,CLR,,0.00,WeatherDisplay:10.37,2013-12-18 05:02:00,
2013-12-18 00:07:00,14.8,12.1,29.89,NE,45,0.0,0.0,89,0.00,CLR,,0.00,WeatherDisplay:10.37,2013-12-18 05:07:00,
2013-12-18 00:12:00,15.2,12.5,29.89,NE,35,0.0,0.0,89,0.00,CLR,,0.00,WeatherDisplay:10.37,2013-12-18 05:12:00,
2013-12-18 00:17:00,15.6,12.9,29.88,ENE,59,0.0,0.0,89,0.00,CLR,,0.00,WeatherDisplay:10.37,2013-12-18 05:17:00,
2013-12-18 00:22:00,16.1,13.7,29.88,NNE,25,0.0,0.0,90,0.00,CLR,,0.00,WeatherDisplay:10.37,2013-12-18 05:22:00,
2013-12-18 00:27:00,16.4,14.0,29.89,NNE,32,0.0,0.0,90,0.00,CLR,,0.00,WeatherDisplay:10.37,2013-12-18 05:27:00,
2013-12-18 00:32:00,16.7,14.0,29.88,ENE,66,0.0,0.0,89,0.00,CLR,,0.00,WeatherDisplay:10.37,2013-12-18 05:32:00,
2013-12-18 00:37:00,16.9,14.2,29.89,ENE,69,0.0,0.0,89,0.00,CLR,,0.00,WeatherDisplay:10.37,2013-12-18 05:37:00,
2013-12-18 00:42:00,16.9,14.2,29.89,ENE,71,0.0,0.0,89,0.00,CLR,,0.00,WeatherDisplay:10.37,2013-12-18 05:42:00,
2013-12-18 00:47:00,16.9,14.2,29.90,ENE,71,0.0,0.0,89,0.00,CLR,,0.00,WeatherDisplay:10.37,2013-12-18 05:47:00,
2013-12-18 00:52:00,16.5,13.6,29.90,ENE,71,0.0,0.0,88,0.00,CLR,,0.00,WeatherDisplay:10.37,2013-12-18 05:52:00,
2013-12-18 00:57:00,16.1,13.2,29.91,ENE,71,0.0,0.0,88,0.00,CLR,,0.00,WeatherDisplay:10.37,2013-12-18 05:57:00,
2013-12-18 01:02:00,15.7,12.8,29.91,ENE,71,0.0,0.0,88,0.00,CLR,,0.00,WeatherDisplay:10.37,2013-12-18 06:02:00,
2013-12-18 01:07:00,15.7,13.0,29.91,ENE,71,0.0,0.0,89,0.00,CLR,,0.00,WeatherDisplay:10.37,2013-12-18 06:07:00,
2013-12-18 01:12:00,15.9,13.2,29.91,ENE,71,0.0,0.0,89,0.00,CLR,,0.00,WeatherDisplay:10.37,2013-12-18 06:12:00,
2013-12-18 01:17:00,16.1,13.4,29.92,ENE,71,0.0,0.0,89,0.00,CLR,,0.00,WeatherDisplay:10.37,2013-12-18 06:17:00,
2013-12-18 01:22:00,16.1,13.4,29.92,ENE,71,0.0,0.0,89,0.00,CLR,,0.00,WeatherDisplay:10.37,2013-12-18 06:22:00,
2013-12-18 01:27:00,16.1,13.4,29.92,ENE,71,0.0,0.0,89,0.00,CLR,,0.00,WeatherDisplay:10.37,2013-12-18 06:27:00,
2013-12-18 01:32:00,16.2,13.5,29.92,ENE,71,0.0,0.0,89,0.00,CLR,,0.00,WeatherDisplay:10.37,2013-12-18 06:32:00,
2013-12-18 01:37:00,16.2,13.5,29.92,ENE,71,0.0,0.0,89,0.00,CLR,,0.00,WeatherDisplay:10.37,2013-12-18 06:37:00,
2013-12-18 01:42:00,16.4,13.7,29.92,ENE,71,0.0,0.0,89,0.00,CLR,,0.00,WeatherDisplay:10.37,2013-12-18 06:42:00,
2013-12-18 01:47:00,16.5,13.8,29.92,ENE,71,0.0,0.0,89,0.00,CLR,,0.00,WeatherDisplay:10.37,2013-12-18 06:47:00,
2013-12-18 01:52:00,16.5,13.8,29.92,ENE,71,0.0,0.0,89,0.00,CLR,,0.00,WeatherDisplay:10.37,2013-12-18 06:52:00,
2013-12-18 01:57:00,16.4,13.5,29.92,ENE,68,0.0,0.0,88,0.00,CLR,,0.00,WeatherDisplay:10.37,2013-12-18 06:57:00,
2013-12-18 02:02:00,16.1,13.2,29.93,ENE,68,0.0,0.0,88,0.00,CLR,,0.00,WeatherDisplay:10.37,2013-12-18 07:02:00,
2013-12-18 02:07:00,16.1,13.4,29.94,ENE,61,0.0,0.0,89,0.00,CLR,,0.00,WeatherDisplay:10.37,2013-12-18 07:07:00,
2013-12-18 02:12:00,16.1,13.4,29.94,ENE,61,0.0,0.0,89,0.00,CLR,,0.00,WeatherDisplay:10.37,2013-12-18 07:12:00,
2013-12-18 02:17:00,16.5,14.1,29.94,ENE,61,0.0,0.0,90,0.00,CLR,,0.00,WeatherDisplay:10.37,2013-12-18 07:17:00,
2013-12-18 02:22:00,17.0,14.3,29.94,ENE,61,0.0,0.0,89,0.00,CLR,,0.00,WeatherDisplay:10.37,2013-12-18 07:22:00,
2013-12-18 02:27:00,17.3,14.6,29.94,ENE,61,0.0,0.0,89,0.00,CLR,,0.00,WeatherDisplay:10.37,2013-12-18 07:27:00,
2013-12-18 02:32:00,17.5,14.8,29.94,ENE,61,0.0,0.0,89,0.00,CLR,,0.00,WeatherDisplay:10.37,2013-12-18 07:32:00,
2013-12-18 02:37:00,17.7,15.0,29.94,ENE,61,0.0,0.0,89,0.00,CLR,,0.00,WeatherDisplay:10.37,2013-12-18 07:37:00,
2013-12-18 02:42:00,17.5,14.8,29.94,ENE,61,0.0,0.0,89,0.00,CLR,,0.00,WeatherDisplay:10.37,2013-12-18 07:42:00,
2013-12-18 02:47:00,17.5,14.8,29.94,ENE,61,0.0,0.0,89,0.00,CLR,,0.00,WeatherDisplay:10.37,2013-12-18 07:47:00,
2013-12-18 02:52:00,17.5,14.8,29.93,ENE,61,0.0,0.0,89,0.00,CLR,,0.00,WeatherDisplay:10.37,2013-12-18 07:52:00,
2013-12-18 02:57:00,17.5,14.8,29.93,ENE,62,0.0,0.0,89,0.00,CLR,,0.00,WeatherDisplay:10.37,2013-12-18 07:57:00,
2013-12-18 03:02:00,17.5,14.8,29.93,ENE,62,0.0,0.0,89,0.00,CLR,,0.00,WeatherDisplay:10.37,2013-12-18 08:02:00,
2013-12-18 03:07:00,17.2,14.3,29.93,NE,56,0.0,0.0,88,0.00,CLR,,0.00,WeatherDisplay:10.37,2013-12-18 08:07:00,
2013-12-18 03:09:00,17.0,14.1,29.93,NE,56,0.0,0.0,88,0.00,CLR,,0.00,WeatherDisplay:10.37,2013-12-18 08:09:00,
2013-12-18 03:12:00,17.0,14.1,29.93,NE,56,0.0,0.0,88,0.00,CLR,,0.00,WeatherDisplay:10.37,2013-12-18 08:12:00,
2013-12-18 03:17:00,17.0,14.1,29.93,NE,56,0.0,0.0,88,0.00,CLR,,0.00,WeatherDisplay:10.37,2013-12-18 08:17:00,
2013-12-18 03:22:00,16.7,14.0,29.94,NE,56,0.0,0.0,89,0.00,CLR,,0.00,WeatherDisplay:10.37,2013-12-18 08:22:00,
2013-12-18 03:27:00,16.5,13.6,29.93,NE,56,0.0,0.0,88,0.00,CLR,,0.00,WeatherDisplay:10.37,2013-12-18 08:27:00,
2013-12-18 03:32:00,16.5,13.6,29.93,NE,56,0.0,0.0,88,0.00,CLR,,0.00,WeatherDisplay:10.37,2013-12-18 08:32:00,
2013-12-18 03:37:00,16.4,13.7,29.93,NE,56,0.0,0.0,89,0.00,CLR,,0.00,WeatherDisplay:10.37,2013-12-18 08:37:00,
2013-12-18 03:43:00,16.5,13.8,29.93,NE,56,0.0,0.0,89,0.00,CLR,,0.00,WeatherDisplay:10.37,2013-12-18 08:43:00,
2013-12-18 03:48:00,16.5,13.8,29.93,NE,56,0.0,0.0,89,0.00,CLR,,0.00,WeatherDisplay:10.37,2013-12-18 08:48:00,
2013-12-18 03:53:00,16.5,13.8,29.93,NE,56,0.0,0.0,89,0.00,CLR,,0.00,WeatherDisplay:10.37,2013-12-18 08:53:00,
2013-12-18 03:58:00,16.7,14.0,29.93,NE,56,0.0,0.0,89,0.00,CLR,,0.00,WeatherDisplay:10.37,2013-12-18 08:58:00,
2013-12-18 04:03:00,16.5,13.6,29.93,NE,56,0.0,0.0,88,0.00,CLR,,0.00,WeatherDisplay:10.37,2013-12-18 09:03:00,
2013-12-18 04:08:00,16.2,13.5,29.93,NE,56,0.0,0.0,89,0.00,CLR,,0.00,WeatherDisplay:10.37,2013-12-18 09:08:00,
2013-12-18 04:13:00,16.2,13.5,29.93,NE,56,0.0,0.0,89,0.00,CLR,,0.00,WeatherDisplay:10.37,2013-12-18 09:13:00,
2013-12-18 04:18:00,16.2,13.5,29.93,NE,56,0.0,0.0,89,0.00,CLR,,0.00,WeatherDisplay:10.37,2013-12-18 09:18:00,
2013-12-18 04:23:00,16.2,13.5,29.93,NE,56,0.0,0.0,89,0.00,CLR,,0.00,WeatherDisplay:10.37,2013-12-18 09:23:00,
2013-12-18 04:28:00,16.4,13.7,29.93,NE,56,0.0,0.0,89,0.00,CLR,,0.00,WeatherDisplay:10.37,2013-12-18 09:28:00,
2013-12-18 04:33:00,16.4,13.7,29.93,NE,56,0.0,0.0,89,0.00,CLR,,0.00,WeatherDisplay:10.37,2013-12-18 09:33:00,
2013-12-18 04:38:00,16.2,13.5,29.93,NE,56,0.0,0.0,89,0.00,CLR,,0.00,WeatherDisplay:10.37,2013-12-18 09:38:00,
2013-12-18 04:43:00,16.1,13.2,29.93,NE,56,0.0,0.0,88,0.00,CLR,,0.00,WeatherDisplay:10.37,2013-12-18 09:43:00,
2013-12-18 04:48:00,15.9,13.2,29.94,NE,56,0.0,0.0,89,0.00,CLR,,0.00,WeatherDisplay:10.37,2013-12-18 09:48:00,
2013-12-18 04:53:00,15.1,12.2,29.94,South,182,0.0,0.0,88,0.00,CLR,,0.00,WeatherDisplay:10.37,2013-12-18 09:53:00,
2013-12-18 04:58:00,14.6,11.7,29.94,South,182,0.0,0.0,88,0.00,CLR,,0.00,WeatherDisplay:10.37,2013-12-18 09:58:00,
2013-12-18 05:03:00,14.3,11.4,29.94,South,182,0.0,0.0,88,0.00,CLR,,0.00,WeatherDisplay:10.37,2013-12-18 10:03:00,
2013-12-18 05:08:00,14.0,11.4,29.94,South,182,0.0,0.0,89,0.00,CLR,,0.00,WeatherDisplay:10.37,2013-12-18 10:08:00,
2013-12-18 05:13:00,13.8,11.2,29.94,South,182,0.0,0.0,89,0.00,CLR,,0.00,WeatherDisplay:10.37,2013-12-18 10:13:00,
2013-12-18 05:18:00,13.6,11.0,29.94,SW,219,0.0,0.0,89,0.00,CLR,,0.00,WeatherDisplay:10.37,2013-12-18 10:18:00,
2013-12-18 05:23:00,13.6,11.0,29.95,SW,219,0.0,0.0,89,0.00,CLR,,0.00,WeatherDisplay:10.37,2013-12-18 10:23:00,
2013-12-18 05:28:00,13.5,10.9,29.95,SW,233,0.0,0.0,89,0.00,CLR,,0.00,WeatherDisplay:10.37,2013-12-18 10:28:00,
2013-12-18 05:33:00,13.5,10.9,29.95,SW,233,0.0,0.0,89,0.00,CLR,,0.00,WeatherDisplay:10.37,2013-12-18 10:33:00,
2013-12-18 05:38:00,13.8,11.2,29.95,SW,233,0.0,0.0,89,0.00,CLR,,0.00,WeatherDisplay:10.37,2013-12-18 10:38:00,
2013-12-18 05:43:00,13.8,11.2,29.95,SW,233,0.0,0.0,89,0.00,CLR,,0.00,WeatherDisplay:10.37,2013-12-18 10:43:00,
2013-12-18 05:48:00,13.8,11.2,29.95,SW,230,0.0,0.0,89,0.00,CLR,,0.00,WeatherDisplay:10.37,2013-12-18 10:48:00,
2013-12-18 05:53:00,14.0,11.4,29.95,SW,230,0.0,0.0,89,0.00,CLR,,0.00,WeatherDisplay:10.37,2013-12-18 10:53:00,
2013-12-18 05:58:00,14.0,11.4,29.96,SW,230,0.0,0.0,89,0.00,CLR,,0.00,WeatherDisplay:10.37,2013-12-18 10:58:00,
2013-12-18 06:03:00,14.1,11.7,29.96,SW,230,0.0,0.0,90,0.00,CLR,,0.00,WeatherDisplay:10.37,2013-12-18 11:03:00,
2013-12-18 06:08:00,14.3,11.7,29.96,SW,232,0.0,0.0,89,0.00,CLR,,0.00,WeatherDisplay:10.37,2013-12-18 11:08:00,
2013-12-18 06:13:00,14.1,11.5,29.96,SW,233,0.0,0.0,89,0.00,CLR,,0.00,WeatherDisplay:10.37,2013-12-18 11:13:00,
2013-12-18 06:14:00,14.1,11.5,29.96,SW,232,0.0,0.0,89,0.00,CLR,,0.00,WeatherDisplay:10.37,2013-12-18 11:14:00,
2013-12-18 06:19:00,14.0,11.4,29.96,SW,232,0.0,0.0,89,0.00,CLR,,0.00,WeatherDisplay:10.37,2013-12-18 11:19:00,
2013-12-18 06:24:00,13.8,11.2,29.97,SW,233,0.0,0.0,89,0.00,CLR,,0.00,WeatherDisplay:10.37,2013-12-18 11:24:00,
2013-12-18 06:29:00,13.5,10.9,29.97,SW,233,0.0,0.0,89,0.00,CLR,,0.00,WeatherDisplay:10.37,2013-12-18 11:29:00,
2013-12-18 06:34:00,13.1,10.5,29.97,SW,233,0.0,0.0,89,0.00,CLR,,0.00,WeatherDisplay:10.37,2013-12-18 11:34:00,
2013-12-18 06:39:00,13.1,10.5,29.97,SW,233,0.0,0.0,89,0.00,CLR,,0.00,WeatherDisplay:10.37,2013-12-18 11:39:00,
2013-12-18 06:44:00,13.3,10.7,29.97,SW,232,0.0,0.0,89,0.00,CLR,,0.00,WeatherDisplay:10.37,2013-12-18 11:44:00,
2013-12-18 06:49:00,13.1,10.5,29.98,SW,232,0.0,0.0,89,0.00,CLR,,0.00,WeatherDisplay:10.37,2013-12-18 11:49:00,
2013-12-18 06:54:00,12.9,10.3,29.97,SW,232,0.0,0.0,89,0.00,CLR,,0.00,WeatherDisplay:10.37,2013-12-18 11:54:00,
2013-12-18 06:59:00,12.9,10.3,29.97,SW,232,0.0,0.0,89,0.00,CLR,,0.00,WeatherDisplay:10.37,2013-12-18 11:59:00,
2013-12-18 07:04:00,13.1,10.5,29.98,SW,232,0.0,0.0,89,0.00,CLR,,0.00,WeatherDisplay:10.37,2013-12-18 12:04:00,
2013-12-18 07:09:00,12.9,10.3,29.98,SW,232,0.0,0.0,89,0.00,CLR,,0.00,WeatherDisplay:10.37,2013-12-18 12:09:00,
2013-12-18 07:14:00,12.6,10.0,29.98,SW,232,0.0,0.0,89,0.00,CLR,,0.00,WeatherDisplay:10.37,2013-12-18 12:14:00,
2013-12-18 07:19:00,12.3,9.7,29.98,SW,232,0.0,0.0,89,0.00,CLR,,0.00,WeatherDisplay:10.37,2013-12-18 12:19:00,
2013-12-18 07:24:00,12.3,9.7,29.99,SW,232,0.0,0.0,89,0.00,CLR,,0.00,WeatherDisplay:10.37,2013-12-18 12:24:00,
2013-12-18 07:29:00,12.6,10.2,29.99,SW,232,0.0,0.0,90,0.00,CLR,,0.00,WeatherDisplay:10.37,2013-12-18 12:29:00,
2013-12-18 07:34:00,12.8,10.4,29.99,SW,232,0.0,0.0,90,0.00,CLR,,0.00,WeatherDisplay:10.37,2013-12-18 12:34:00,
2013-12-18 07:39:00,12.8,10.2,29.99,SW,232,0.0,0.0,89,0.00,CLR,,0.00,WeatherDisplay:10.37,2013-12-18 12:39:00,
2013-12-18 07:44:00,13.1,10.5,29.99,SW,232,0.0,0.0,89,0.00,CLR,,0.00,WeatherDisplay:10.37,2013-12-18 12:44:00,
2013-12-18 07:49:00,13.6,11.0,29.99,SW,232,0.0,0.0,89,0.00,CLR,,0.00,WeatherDisplay:10.37,2013-12-18 12:49:00,
2013-12-18 07:54:00,14.6,12.2,29.99,SW,232,0.0,0.0,90,0.00,CLR,,0.00,WeatherDisplay:10.37,2013-12-18 12:54:00,
2013-12-18 07:59:00,15.4,13.0,29.99,SW,233,0.0,0.0,90,0.00,CLR,,0.00,WeatherDisplay:10.37,2013-12-18 12:59:00,
2013-12-18 08:04:00,15.4,12.7,30.00,SW,233,0.0,0.0,89,0.00,CLR,,0.00,WeatherDisplay:10.37,2013-12-18 13:04:00,
2013-12-18 08:09:00,15.2,12.5,30.00,SW,233,0.0,0.0,89,0.00,CLR,,0.00,WeatherDisplay:10.37,2013-12-18 13:09:00,
2013-12-18 08:14:00,15.6,12.9,30.00,SW,233,0.0,0.0,89,0.00,CLR,,0.00,WeatherDisplay:10.37,2013-12-18 13:14:00,
2013-12-18 08:19:00,15.6,12.9,30.00,NW,305,0.0,0.0,89,0.00,CLR,,0.00,WeatherDisplay:10.37,2013-12-18 13:19:00,
2013-12-18 08:24:00,15.6,12.9,30.00,NW,304,0.0,0.0,89,0.00,CLR,,0.00,WeatherDisplay:10.37,2013-12-18 13:24:00,
2013-12-18 08:29:00,15.7,13.0,30.00,NW,304,0.0,0.0,89,0.00,CLR,,0.00,WeatherDisplay:10.37,2013-12-18 13:29:00,
2013-12-18 08:34:00,16.2,13.5,30.00,WSW,257,0.0,0.0,89,0.00,CLR,,0.00,WeatherDisplay:10.37,2013-12-18 13:34:00,
2013-12-18 08:39:00,16.9,14.5,30.00,WSW,257,0.0,0.0,90,0.00,CLR,,0.00,WeatherDisplay:10.37,2013-12-18 13:39:00,
2013-12-18 08:44:00,17.3,14.9,30.01,WSW,251,0.0,0.0,90,0.00,CLR,,0.00,WeatherDisplay:10.37,2013-12-18 13:44:00,
2013-12-18 08:49:00,18.3,15.9,30.01,WSW,250,0.4,3.5,90,0.00,CLR,,0.00,WeatherDisplay:10.37,2013-12-18 13:49:00,
2013-12-18 08:54:00,19.2,16.7,30.01,West,280,0.0,2.0,90,0.00,CLR,,0.00,WeatherDisplay:10.37,2013-12-18 13:54:00,
2013-12-18 08:59:00,20.6,18.4,30.01,West,278,0.0,0.0,91,0.00,CLR,,0.00,WeatherDisplay:10.37,2013-12-18 13:59:00,
2013-12-18 09:04:00,21.9,19.4,30.01,WNW,289,0.6,3.5,90,0.00,CLR,,0.00,WeatherDisplay:10.37,2013-12-18 14:04:00,
2013-12-18 09:09:00,22.9,20.1,30.01,West,280,0.0,1.2,89,0.00,CLR,,0.00,WeatherDisplay:10.37,2013-12-18 14:09:00,
2013-12-18 09:14:00,23.6,20.6,30.01,West,281,0.5,2.3,88,0.00,CLR,,0.00,WeatherDisplay:10.37,2013-12-18 14:14:00,
2013-12-18 09:19:00,24.2,20.6,30.01,West,265,0.5,3.0,86,0.00,CLR,,0.00,WeatherDisplay:10.37,2013-12-18 14:19:00,
2013-12-18 09:24:00,24.7,20.8,30.01,WNW,296,1.8,9.2,85,0.00,CLR,,0.00,WeatherDisplay:10.37,2013-12-18 14:24:00,
2013-12-18 09:29:00,25.1,20.7,30.01,WNW,294,6.0,11.5,83,0.00,CLR,,0.00,WeatherDisplay:10.37,2013-12-18 14:29:00,
2013-12-18 09:34:00,25.6,21.2,30.01,WNW,298,6.1,11.5,83,0.00,CLR,,0.00,WeatherDisplay:10.37,2013-12-18 14:34:00,
2013-12-18 09:39:00,25.8,20.8,30.01,WSW,257,6.8,17.3,81,0.00,CLR,,0.00,WeatherDisplay:10.37,2013-12-18 14:39:00,
2013-12-18 09:44:00,26.0,21.0,30.01,West,261,1.0,6.9,81,0.00,CLR,,0.00,WeatherDisplay:10.37,2013-12-18 14:44:00,
2013-12-18 09:49:00,26.1,20.8,30.01,West,261,5.2,10.4,80,0.00,CLR,,0.00,WeatherDisplay:10.37,2013-12-18 14:49:00,
2013-12-18 09:54:00,26.4,20.8,30.01,West,280,0.5,4.6,79,0.00,CLR,,0.00,WeatherDisplay:10.37,2013-12-18 14:54:00,
2013-12-18 09:59:00,26.7,21.1,30.01,WNW,295,0.0,0.0,79,0.00,CLR,,0.00,WeatherDisplay:10.37,2013-12-18 14:59:00,
2013-12-18 10:04:00,26.9,21.3,30.02,WSW,248,0.0,0.0,79,0.00,CLR,,0.00,WeatherDisplay:10.37,2013-12-18 15:04:00,
2013-12-18 10:09:00,27.2,21.2,30.02,West,261,1.2,5.8,78,0.00,CLR,,0.00,WeatherDisplay:10.37,2013-12-18 15:09:00,
2013-12-18 10:14:00,27.3,21.0,30.02,WSW,248,0.9,4.6,77,0.00,CLR,,0.00,WeatherDisplay:10.37,2013-12-18 15:14:00,
2013-12-18 10:19:00,27.5,20.9,30.02,SW,232,1.0,4.6,76,0.00,CLR,,0.00,WeatherDisplay:10.37,2013-12-18 15:19:00,
2013-12-18 10:24:00,27.9,21.3,30.02,WSW,246,3.5,5.8,76,0.00,CLR,,0.00,WeatherDisplay:10.37,2013-12-18 15:24:00,
2013-12-18 10:29:00,28.4,21.2,30.01,WSW,247,1.1,5.8,74,0.00,CLR,,0.00,WeatherDisplay:10.37,2013-12-18 15:29:00,
2013-12-18 10:34:00,28.8,21.2,30.01,WSW,247,1.1,6.0,73,0.00,CLR,,0.00,WeatherDisplay:10.37,2013-12-18 15:34:00,
2013-12-18 10:39:00,29.3,21.4,30.01,West,277,3.9,8.1,72,0.00,CLR,,0.00,WeatherDisplay:10.37,2013-12-18 15:39:00,
2013-12-18 10:44:00,29.5,21.6,30.01,West,270,2.3,8.1,72,0.00,CLR,,0.00,WeatherDisplay:10.37,2013-12-18 15:44:00,
2013-12-18 10:49:00,29.8,21.5,30.01,WNW,301,1.5,5.8,71,0.00,CLR,,0.00,WeatherDisplay:10.37,2013-12-18 15:49:00,
2013-12-18 10:54:00,30.0,21.4,30.01,WNW,287,4.9,6.9,70,0.00,CLR,,0.00,WeatherDisplay:10.37,2013-12-18 15:54:00,
2013-12-18 10:59:00,30.4,21.8,30.01,West,263,0.6,4.6,70,0.00,CLR,,0.00,WeatherDisplay:10.37,2013-12-18 15:59:00,
2013-12-18 11:04:00,30.9,22.3,30.01,WSW,253,0.2,1.2,70,0.00,CLR,,0.00,WeatherDisplay:10.37,2013-12-18 16:04:00,
2013-12-18 11:09:00,30.9,21.6,30.01,NW,309,4.6,11.5,68,0.00,CLR,,0.01,WeatherDisplay:10.37,2013-12-18 16:09:00,
2013-12-18 11:14:00,31.2,21.9,30.01,West,281,4.5,8.1,68,0.01,RA,,0.01,WeatherDisplay:10.37,2013-12-18 16:14:00,
2013-12-18 11:19:00,31.5,22.1,30.00,WNW,296,4.0,6.9,68,0.01,,,0.01,WeatherDisplay:10.37,2013-12-18 16:19:00,
2013-12-18 11:24:00,31.5,22.1,30.00,WSW,247,0.0,0.0,68,0.01,CLR,,0.01,WeatherDisplay:10.37,2013-12-18 16:24:00,
2013-12-18 11:29:00,31.8,21.7,30.01,West,272,0.9,6.9,66,0.01,CLR,,0.01,WeatherDisplay:10.37,2013-12-18 16:29:00,
2013-12-18 11:34:00,31.9,21.8,30.00,WSW,250,0.3,4.6,66,0.01,CLR,,0.01,WeatherDisplay:10.37,2013-12-18 16:34:00,
2013-12-18 11:39:00,31.8,21.4,30.00,NNW,339,8.0,11.5,65,0.01,CLR,,0.01,WeatherDisplay:10.37,2013-12-18 16:39:00,
2013-12-18 11:44:00,31.8,21.7,30.00,WNW,296,1.5,6.9,66,0.01,CLR,,0.01,WeatherDisplay:10.37,2013-12-18 16:44:00,
2013-12-18 11:49:00,32.1,21.7,30.00,NW,320,1.3,6.0,65,0.01,CLR,,0.01,WeatherDisplay:10.37,2013-12-18 16:49:00,
2013-12-18 11:54:00,31.9,20.7,30.00,WSW,248,5.1,8.1,63,0.01,CLR,,0.01,WeatherDisplay:10.37,2013-12-18 16:54:00,
2013-12-18 11:59:00,32.1,21.3,30.00,WNW,291,5.1,9.2,64,0.01,CLR,,0.01,WeatherDisplay:10.37,2013-12-18 16:59:00,
2013-12-18 12:04:00,32.2,21.0,30.00,WNW,291,5.5,10.0,63,0.01,CLR,,0.01,WeatherDisplay:10.37,2013-12-18 17:04:00,
2013-12-18 12:09:00,32.1,20.2,30.00,SW,234,9.0,20.7,61,0.01,CLR,,0.01,WeatherDisplay:10.37,2013-12-18 17:09:00,
2013-12-18 12:14:00,32.1,20.5,29.99,West,268,10.8,16.1,62,0.01,CLR,,0.01,WeatherDisplay:10.37,2013-12-18 17:14:00,
2013-12-18 12:19:00,32.1,20.5,29.99,WNW,285,1.5,13.8,62,0.01,CLR,,0.01,WeatherDisplay:10.37,2013-12-18 17:19:00,
2013-12-18 12:24:00,32.7,20.3,29.99,NW,311,7.4,16.1,60,0.00,CLR,,0.01,WeatherDisplay:10.37,2013-12-18 17:24:00,
2013-12-18 12:29:00,32.5,20.1,29.99,NW,306,6.7,12.7,60,0.00,CLR,,0.01,WeatherDisplay:10.37,2013-12-18 17:29:00,
2013-12-18 12:34:00,32.7,19.9,29.99,North,352,8.0,12.7,59,0.00,CLR,,0.02,WeatherDisplay:10.37,2013-12-18 17:34:00,
2013-12-18 12:39:00,32.7,19.9,29.99,WNW,302,7.8,12.7,59,0.01,RA,,0.02,WeatherDisplay:10.37,2013-12-18 17:39:00,
2013-12-18 12:44:00,32.2,19.5,29.99,WNW,301,3.7,11.5,59,0.01,,,0.02,WeatherDisplay:10.37,2013-12-18 17:44:00,
2013-12-18 12:49:00,32.1,19.4,29.99,NW,306,7.5,11.5,59,0.01,CLR,,0.02,WeatherDisplay:10.37,2013-12-18 17:49:00,
2013-12-18 12:54:00,32.1,19.4,29.99,WNW,285,7.5,11.5,59,0.01,CLR,,0.02,WeatherDisplay:10.37,2013-12-18 17:54:00,
2013-12-18 12:59:00,31.6,19.3,29.99,WSW,237,10.4,21.9,60,0.01,CLR,,0.02,WeatherDisplay:10.37,2013-12-18 17:59:00,
2013-12-18 13:05:00,31.8,19.5,29.99,North,0,7.6,11.5,60,0.01,CLR,,0.02,WeatherDisplay:10.37,2013-12-18 18:05:00,
2013-12-18 13:10:00,31.8,19.5,29.99,NW,311,6.3,12.0,60,0.01,CLR,,0.02,WeatherDisplay:10.37,2013-12-18 18:10:00,
2013-12-18 13:15:00,31.6,18.9,29.99,WNW,282,7.6,11.5,59,0.01,CLR,,0.02,WeatherDisplay:10.37,2013-12-18 18:15:00,
2013-12-18 13:20:00,31.5,19.2,30.00,NW,312,3.9,6.9,60,0.01,CLR,,0.02,WeatherDisplay:10.37,2013-12-18 18:20:00,
2013-12-18 13:25:00,31.8,19.5,29.99,NW,304,1.8,11.5,60,0.01,CLR,,0.02,WeatherDisplay:10.37,2013-12-18 18:25:00,
2013-12-18 13:30:00,32.2,19.5,29.99,WNW,299,5.9,11.5,59,0.02,RA,,0.03,WeatherDisplay:10.37,2013-12-18 18:30:00,
2013-12-18 13:35:00,32.9,19.7,29.99,West,270,0.0,0.0,58,0.02,RA,,0.03,WeatherDisplay:10.37,2013-12-18 18:35:00,
2013-12-18 13:40:00,33.4,20.2,30.00,West,274,8.0,11.5,58,0.01,CLR,,0.03,WeatherDisplay:10.37,2013-12-18 18:40:00,
2013-12-18 13:45:00,33.4,19.4,30.00,NW,316,9.1,19.6,56,0.02,RA,,0.04,WeatherDisplay:10.37,2013-12-18 18:45:00,
2013-12-18 13:50:00,33.2,20.0,30.00,WNW,294,7.1,14.0,58,0.02,RA,,0.04,WeatherDisplay:10.37,2013-12-18 18:50:00,
2013-12-18 13:55:00,32.9,19.3,30.00,NW,311,7.2,17.3,57,0.02,,,0.04,WeatherDisplay:10.37,2013-12-18 18:55:00,
2013-12-18 14:00:00,32.7,19.5,30.01,NW,311,8.0,12.7,58,0.02,CLR,,0.04,WeatherDisplay:10.37,2013-12-18 19:00:00,
2013-12-18 14:05:00,32.5,19.7,30.01,West,261,0.0,4.6,59,0.02,CLR,,0.04,WeatherDisplay:10.37,2013-12-18 19:05:00,
2013-12-18 14:10:00,32.5,19.3,30.01,NNW,346,4.2,8.1,58,0.02,CLR,,0.04,WeatherDisplay:10.37,2013-12-18 19:10:00,
2013-12-18 14:15:00,32.2,19.5,30.01,NW,305,5.5,11.5,59,0.02,CLR,,0.04,WeatherDisplay:10.37,2013-12-18 19:15:00,
2013-12-18 14:20:00,32.1,19.4,30.01,WNW,284,9.8,16.1,59,0.03,RA,,0.05,WeatherDisplay:10.37,2013-12-18 19:20:00,
2013-12-18 14:25:00,32.2,19.5,30.01,NW,305,6.0,11.5,59,0.03,RA,,0.05,WeatherDisplay:10.37,2013-12-18 19:25:00,
2013-12-18 14:30:00,32.1,19.8,30.01,WNW,301,1.7,5.8,60,0.02,CLR,,0.05,WeatherDisplay:10.37,2013-12-18 19:30:00,
2013-12-18 14:35:00,31.9,19.2,30.01,WNW,284,5.0,10.4,59,0.02,CLR,,0.05,WeatherDisplay:10.37,2013-12-18 19:35:00,
2013-12-18 14:40:00,32.1,19.4,30.02,WNW,299,6.2,11.5,59,0.02,CLR,,0.05,WeatherDisplay:10.37,2013-12-18 19:40:00,
2013-12-18 14:45:00,32.1,19.0,30.02,WNW,298,6.9,15.0,58,0.01,CLR,,0.05,WeatherDisplay:10.37,2013-12-18 19:45:00,
2013-12-18 14:50:00,32.2,19.1,30.02,WNW,294,9.9,19.0,58,0.01,CLR,,0.05,WeatherDisplay:10.37,2013-12-18 19:50:00,
2013-12-18 14:55:00,32.4,18.8,30.02,WNW,301,8.3,19.6,57,0.01,CLR,,0.05,WeatherDisplay:10.37,2013-12-18 19:55:00,
2013-12-18 15:00:00,32.2,18.7,30.02,NW,312,5.9,11.5,57,0.01,CLR,,0.05,WeatherDisplay:10.37,2013-12-18 20:00:00,
2013-12-18 15:05:00,32.1,18.6,30.02,WNW,287,6.5,9.2,57,0.01,CLR,,0.05,WeatherDisplay:10.37,2013-12-18 20:05:00,
2013-12-18 15:10:00,31.9,18.8,30.02,WNW,282,7.2,11.5,58,0.01,CLR,,0.05,WeatherDisplay:10.37,2013-12-18 20:10:00,
2013-12-18 15:15:00,31.6,18.5,30.02,WNW,296,5.0,6.9,58,0.01,CLR,,0.05,WeatherDisplay:10.37,2013-12-18 20:15:00,
2013-12-18 15:20:00,31.5,18.4,30.03,West,270,11.7,19.6,58,0.01,RA,,0.06,WeatherDisplay:10.37,2013-12-18 20:20:00,
2013-12-18 15:25:00,31.5,18.0,30.03,NNW,329,6.9,11.5,57,0.01,RA,,0.06,WeatherDisplay:10.37,2013-12-18 20:25:00,
2013-12-18 15:30:00,31.5,18.4,30.04,West,270,7.4,11.5,58,0.01,,,0.06,WeatherDisplay:10.37,2013-12-18 20:30:00,
2013-12-18 15:35:00,31.5,18.4,30.04,WNW,296,0.1,6.0,58,0.01,CLR,,0.06,WeatherDisplay:10.37,2013-12-18 20:35:00,
2013-12-18 15:40:00,31.5,18.8,30.04,WNW,287,4.5,8.1,59,0.01,CLR,,0.06,WeatherDisplay:10.37,2013-12-18 20:40:00,
2013-12-18 15:45:00,31.5,18.8,30.04,WSW,257,2.7,6.9,59,0.01,CLR,,0.06,WeatherDisplay:10.37,2013-12-18 20:45:00,
2013-12-18 15:50:00,31.3,19.0,30.04,WNW,291,3.5,5.8,60,0.01,CLR,,0.06,WeatherDisplay:10.37,2013-12-18 20:50:00,
2013-12-18 15:55:00,31.2,18.9,30.04,West,264,2.0,4.0,60,0.01,CLR,,0.06,WeatherDisplay:10.37,2013-12-18 20:55:00,
2013-12-18 16:00:00,31.2,18.9,30.04,WSW,251,5.3,8.1,60,0.01,CLR,,0.06,WeatherDisplay:10.37,2013-12-18 21:00:00,
2013-12-18 16:05:00,31.3,19.0,30.05,WSW,246,0.0,4.6,60,0.01,CLR,,0.06,WeatherDisplay:10.37,2013-12-18 21:05:00,
2013-12-18 16:10:00,31.3,19.0,30.05,WSW,254,0.0,0.0,60,0.01,CLR,,0.06,WeatherDisplay:10.37,2013-12-18 21:10:00,
2013-12-18 16:15:00,31.2,18.9,30.05,WSW,240,0.4,6.9,60,0.01,CLR,,0.06,WeatherDisplay:10.37,2013-12-18 21:15:00,
2013-12-18 16:20:00,31.2,19.3,30.05,WSW,240,0.0,0.0,61,0.00,CLR,,0.06,WeatherDisplay:10.37,2013-12-18 21:20:00,
2013-12-18 16:25:00,31.0,19.1,30.05,SW,236,0.0,0.0,61,0.00,CLR,,0.06,WeatherDisplay:10.37,2013-12-18 21:25:00,
2013-12-18 16:30:00,31.0,19.1,30.05,West,272,0.0,0.0,61,0.00,CLR,,0.06,WeatherDisplay:10.37,2013-12-18 21:30:00,
2013-12-18 16:35:00,30.7,18.8,30.05,West,260,0.0,0.0,61,0.00,CLR,,0.06,WeatherDisplay:10.37,2013-12-18 21:35:00,
2013-12-18 16:40:00,30.6,18.7,30.06,WSW,257,0.0,0.0,61,0.00,CLR,,0.06,WeatherDisplay:10.37,2013-12-18 21:40:00,
2013-12-18 16:45:00,30.4,18.9,30.06,WSW,251,0.0,0.0,62,0.00,CLR,,0.06,WeatherDisplay:10.37,2013-12-18 21:45:00,
2013-12-18 16:50:00,30.3,18.8,30.06,WSW,243,0.0,0.0,62,0.00,CLR,,0.06,WeatherDisplay:10.37,2013-12-18 21:50:00,
2013-12-18 16:55:00,30.1,18.6,30.06,WSW,237,0.0,0.0,62,0.00,CLR,,0.06,WeatherDisplay:10.37,2013-12-18 21:55:00,
2013-12-18 17:00:00,30.3,18.8,30.06,SW,215,0.0,0.0,62,0.00,CLR,,0.06,WeatherDisplay:10.37,2013-12-18 22:00:00,
2013-12-18 17:05:00,30.1,18.6,30.06,SW,219,0.0,0.0,62,0.00,CLR,,0.06,WeatherDisplay:10.37,2013-12-18 22:05:00,
2013-12-18 17:10:00,30.0,18.9,30.06,SW,216,0.0,0.0,63,0.00,CLR,,0.06,WeatherDisplay:10.37,2013-12-18 22:10:00,
2013-12-18 17:15:00,29.8,19.1,30.06,WSW,248,0.0,0.0,64,0.00,CLR,,0.06,WeatherDisplay:10.37,2013-12-18 22:15:00,
2013-12-18 17:20:00,29.7,19.0,30.07,WSW,251,0.0,0.0,64,0.00,CLR,,0.06,WeatherDisplay:10.37,2013-12-18 22:20:00,
2013-12-18 17:25:00,29.7,19.0,30.07,WSW,239,0.0,0.0,64,0.00,CLR,,0.06,WeatherDisplay:10.37,2013-12-18 22:25:00,
2013-12-18 17:30:00,29.7,19.0,30.07,SW,233,0.0,0.0,64,0.00,CLR,,0.06,WeatherDisplay:10.37,2013-12-18 22:30:00,
2013-12-18 17:35:00,29.7,18.6,30.07,SW,236,0.0,0.0,63,0.00,CLR,,0.06,WeatherDisplay:10.37,2013-12-18 22:35:00,
2013-12-18 17:40:00,29.8,18.7,30.07,WNW,285,0.7,0.0,63,0.00,CLR,,0.06,WeatherDisplay:10.37,2013-12-18 22:40:00,
2013-12-18 17:45:00,29.8,18.4,30.07,West,263,0.0,0.0,62,0.00,CLR,,0.06,WeatherDisplay:10.37,2013-12-18 22:45:00,
2013-12-18 17:50:00,29.8,18.4,30.07,SW,232,0.5,4.6,62,0.00,CLR,,0.06,WeatherDisplay:10.37,2013-12-18 22:50:00,
2013-12-18 17:55:00,29.8,18.4,30.07,WSW,248,0.0,0.0,62,0.00,CLR,,0.06,WeatherDisplay:10.37,2013-12-18 22:55:00,
2013-12-18 18:00:00,29.7,18.3,30.07,WSW,239,0.0,0.0,62,0.00,CLR,,0.06,WeatherDisplay:10.37,2013-12-18 23:00:00,
2013-12-18 18:05:00,29.7,18.3,30.08,SW,229,0.0,0.0,62,0.00,CLR,,0.06,WeatherDisplay:10.37,2013-12-18 23:05:00,
2013-12-18 18:10:00,29.5,18.1,30.08,WSW,241,0.0,0.0,62,0.00,CLR,,0.06,WeatherDisplay:10.37,2013-12-18 23:10:00,
2013-12-18 18:15:00,29.5,18.1,30.08,WSW,244,0.0,0.0,62,0.00,CLR,,0.06,WeatherDisplay:10.37,2013-12-18 23:15:00,
2013-12-18 18:20:00,29.4,18.0,30.08,WSW,244,0.0,0.0,62,0.00,CLR,,0.06,WeatherDisplay:10.37,2013-12-18 23:20:00,
2013-12-18 18:25:00,29.3,17.9,30.09,WSW,244,0.0,0.0,62,0.00,CLR,,0.06,WeatherDisplay:10.37,2013-12-18 23:25:00,
2013-12-18 18:30:00,29.1,17.7,30.09,WSW,244,0.0,0.0,62,0.00,CLR,,0.06,WeatherDisplay:10.37,2013-12-18 23:30:00,
2013-12-18 18:35:00,29.0,18.0,30.09,WSW,243,0.0,0.0,63,0.00,CLR,,0.06,WeatherDisplay:10.37,2013-12-18 23:35:00,
2013-12-18 18:40:00,28.8,18.1,30.09,WSW,243,0.0,0.0,64,0.00,CLR,,0.06,WeatherDisplay:10.37,2013-12-18 23:40:00,
2013-12-18 18:45:00,28.7,18.1,30.09,WSW,244,0.0,0.0,64,0.00,CLR,,0.06,WeatherDisplay:10.37,2013-12-18 23:45:00,
2013-12-18 18:50:00,28.4,18.1,30.09,WSW,244,0.0,0.0,65,0.00,CLR,,0.06,WeatherDisplay:10.37,2013-12-18 23:50:00,
2013-12-18 18:55:00,28.2,17.9,30.09,SW,236,0.0,0.0,65,0.00,CLR,,0.06,WeatherDisplay:10.37,2013-12-18 23:55:00,
2013-12-18 19:00:00,28.1,17.8,30.09,WSW,246,0.0,0.0,65,0.00,CLR,,0.06,WeatherDisplay:10.37,2013-12-19 00:00:00,
2013-12-18 19:05:00,28.1,17.8,30.09,SW,226,0.0,0.0,65,0.00,CLR,,0.06,WeatherDisplay:10.37,2013-12-19 00:05:00,
2013-12-18 19:10:00,27.8,17.6,30.09,West,275,0.0,0.0,65,0.00,CLR,,0.06,WeatherDisplay:10.37,2013-12-19 00:10:00,
2013-12-18 19:15:00,27.6,17.4,30.09,West,268,0.0,0.0,65,0.00,CLR,,0.06,WeatherDisplay:10.37,2013-12-19 00:15:00,
2013-12-18 19:20:00,27.6,17.4,30.09,WSW,247,0.0,0.0,65,0.00,CLR,,0.06,WeatherDisplay:10.37,2013-12-19 00:20:00,
2013-12-18 19:25:00,27.6,17.4,30.10,WSW,250,0.0,0.0,65,0.00,CLR,,0.06,WeatherDisplay:10.37,2013-12-19 00:25:00,
2013-12-18 19:30:00,27.8,17.6,30.10,SW,236,0.0,0.0,65,0.00,CLR,,0.06,WeatherDisplay:10.37,2013-12-19 00:30:00,
2013-12-18 19:35:00,28.1,17.8,30.10,West,267,0.1,5.8,65,0.00,CLR,,0.06,WeatherDisplay:10.37,2013-12-19 00:35:00,
2013-12-18 19:40:00,28.2,17.6,30.10,WSW,253,1.4,6.9,64,0.00,CLR,,0.06,WeatherDisplay:10.37,2013-12-19 00:40:00,
2013-12-18 19:45:00,28.1,17.5,30.10,West,264,0.7,3.5,64,0.00,CLR,,0.06,WeatherDisplay:10.37,2013-12-19 00:45:00,
2013-12-18 19:50:00,27.9,17.3,30.10,SSW,213,0.3,6.0,64,0.00,CLR,,0.06,WeatherDisplay:10.37,2013-12-19 00:50:00,
2013-12-18 19:55:00,28.4,17.8,30.10,West,261,4.9,11.5,64,0.00,CLR,,0.06,WeatherDisplay:10.37,2013-12-19 00:55:00,
2013-12-18 20:00:00,28.7,17.7,30.11,West,270,1.2,6.9,63,0.00,CLR,,0.06,WeatherDisplay:10.37,2013-12-19 01:00:00,
2013-12-18 20:05:00,28.8,17.4,30.10,SW,230,0.1,5.8,62,0.00,CLR,,0.06,WeatherDisplay:10.37,2013-12-19 01:05:00,
2013-12-18 20:10:00,28.2,17.2,30.10,SW,230,0.0,0.0,63,0.00,CLR,,0.06,WeatherDisplay:10.37,2013-12-19 01:10:00,
2013-12-18 20:15:00,27.9,17.3,30.10,SSW,202,0.0,0.0,64,0.00,CLR,,0.06,WeatherDisplay:10.37,2013-12-19 01:15:00,
2013-12-18 20:20:00,27.5,17.3,30.10,South,185,0.0,0.0,65,0.00,CLR,,0.06,WeatherDisplay:10.37,2013-12-19 01:20:00,
2013-12-18 20:25:00,27.5,17.3,30.10,SSW,209,2.3,5.8,65,0.00,CLR,,0.06,WeatherDisplay:10.37,2013-12-19 01:25:00,
2013-12-18 20:30:00,27.5,17.3,30.10,SW,220,0.5,3.5,65,0.00,CLR,,0.06,WeatherDisplay:10.37,2013-12-19 01:30:00,
2013-12-18 20:35:00,27.5,17.3,30.10,SW,232,0.0,0.0,65,0.00,CLR,,0.06,WeatherDisplay:10.37,2013-12-19 01:35:00,
2013-12-18 20:40:00,27.5,17.3,30.10,SW,219,1.0,3.5,65,0.00,CLR,,0.06,WeatherDisplay:10.37,2013-12-19 01:40:00,
2013-12-18 20:45:00,27.5,17.3,30.10,WSW,240,0.0,0.0,65,0.00,CLR,,0.06,WeatherDisplay:10.37,2013-12-19 01:45:00,
2013-12-18 20:50:00,27.3,17.1,30.10,WSW,240,0.0,0.0,65,0.00,CLR,,0.06,WeatherDisplay:10.37,2013-12-19 01:50:00,
2013-12-18 20:55:00,27.3,17.1,30.10,WSW,248,0.0,0.0,65,0.00,CLR,,0.06,WeatherDisplay:10.37,2013-12-19 01:55:00,
2013-12-18 21:00:00,27.3,17.1,30.10,SW,234,0.0,0.0,65,0.00,CLR,,0.06,WeatherDisplay:10.37,2013-12-19 02:00:00,
2013-12-18 21:05:00,27.2,17.0,30.10,SW,222,0.0,0.0,65,0.00,CLR,,0.06,WeatherDisplay:10.37,2013-12-19 02:05:00,
2013-12-18 21:10:00,27.2,17.3,30.10,SW,230,2.0,6.9,66,0.00,CLR,,0.06,WeatherDisplay:10.37,2013-12-19 02:10:00,
2013-12-18 21:15:00,27.3,17.1,30.10,SW,223,0.0,5.8,65,0.00,CLR,,0.06,WeatherDisplay:10.37,2013-12-19 02:15:00,
2013-12-18 21:20:00,27.3,17.1,30.10,SW,233,0.0,0.0,65,0.00,CLR,,0.06,WeatherDisplay:10.37,2013-12-19 02:20:00,
2013-12-18 21:25:00,27.2,17.0,30.10,WSW,244,0.0,5.8,65,0.00,CLR,,0.06,WeatherDisplay:10.37,2013-12-19 02:25:00,
2013-12-18 21:30:00,26.9,16.7,30.10,WSW,257,0.0,0.0,65,0.00,CLR,,0.06,WeatherDisplay:10.37,2013-12-19 02:30:00,
2013-12-18 21:35:00,26.7,16.9,30.10,WSW,251,0.0,2.3,66,0.00,CLR,,0.06,WeatherDisplay:10.37,2013-12-19 02:35:00,
2013-12-18 21:40:00,26.4,16.6,30.10,WSW,250,0.0,0.0,66,0.00,CLR,,0.06,WeatherDisplay:10.37,2013-12-19 02:40:00,
2013-12-18 21:45:00,26.1,16.6,30.10,WSW,251,0.0,0.0,67,0.00,CLR,,0.06,WeatherDisplay:10.37,2013-12-19 02:45:00,
2013-12-18 21:50:00,26.1,16.6,30.10,WSW,248,0.0,0.0,67,0.00,CLR,,0.06,WeatherDisplay:10.37,2013-12-19 02:50:00,
2013-12-18 21:55:00,26.1,17.0,30.10,WSW,241,0.0,0.0,68,0.00,CLR,,0.06,WeatherDisplay:10.37,2013-12-19 02:55:00,
2013-12-18 22:00:00,26.1,17.0,30.11,WSW,240,0.0,0.0,68,0.00,CLR,,0.06,WeatherDisplay:10.37,2013-12-19 03:00:00,
2013-12-18 22:05:00,26.0,16.9,30.10,SW,234,0.0,0.0,68,0.00,CLR,,0.06,WeatherDisplay:10.37,2013-12-19 03:05:00,
2013-12-18 22:10:00,26.0,16.9,30.10,SW,234,0.0,0.0,68,0.00,CLR,,0.06,WeatherDisplay:10.37,2013-12-19 03:10:00,
2013-12-18 22:15:00,25.8,17.0,30.10,SW,223,0.0,0.0,69,0.00,CLR,,0.06,WeatherDisplay:10.37,2013-12-19 03:15:00,
2013-12-18 22:20:00,26.0,17.2,30.10,SW,226,0.0,0.0,69,0.00,CLR,,0.06,WeatherDisplay:10.37,2013-12-19 03:20:00,
2013-12-18 22:25:00,26.0,17.2,30.10,SW,229,0.0,0.0,69,0.00,CLR,,0.06,WeatherDisplay:10.37,2013-12-19 03:25:00,
2013-12-18 22:30:00,25.8,17.0,30.10,SSW,196,0.0,0.0,69,0.00,CLR,,0.06,WeatherDisplay:10.37,2013-12-19 03:30:00,
2013-12-18 22:35:00,25.7,16.9,30.09,SSW,200,0.0,0.0,69,0.00,CLR,,0.06,WeatherDisplay:10.37,2013-12-19 03:35:00,
2013-12-18 22:40:00,25.6,16.8,30.09,SSW,203,0.0,0.0,69,0.00,CLR,,0.06,WeatherDisplay:10.37,2013-12-19 03:40:00,
2013-12-18 22:45:00,25.4,16.6,30.09,SSW,203,0.0,0.0,69,0.00,CLR,,0.06,WeatherDisplay:10.37,2013-12-19 03:45:00,
2013-12-18 22:50:00,25.3,16.9,30.10,SSW,210,0.0,0.0,70,0.00,CLR,,0.06,WeatherDisplay:10.37,2013-12-19 03:50:00,
2013-12-18 22:55:00,25.1,17.0,30.11,SSW,213,0.0,0.0,71,0.00,CLR,,0.06,WeatherDisplay:10.37,2013-12-19 03:55:00,
2013-12-18 23:00:00,25.0,16.6,30.10,SW,215,0.0,0.0,70,0.00,CLR,,0.06,WeatherDisplay:10.37,2013-12-19 04:00:00,
2013-12-18 23:05:00,24.8,16.7,30.10,SSW,213,0.0,0.0,71,0.00,CLR,,0.06,WeatherDisplay:10.37,2013-12-19 04:05:00,
2013-12-18 23:10:00,24.8,16.7,30.11,SW,222,0.0,0.0,71,0.00,CLR,,0.06,WeatherDisplay:10.37,2013-12-19 04:10:00,
2013-12-18 23:15:00,24.8,16.7,30.10,SSW,208,0.0,0.0,71,0.00,CLR,,0.06,WeatherDisplay:10.37,2013-12-19 04:15:00,
2013-12-18 23:20:00,24.8,16.7,30.10,SSW,200,0.2,1.2,71,0.00,CLR,,0.06,WeatherDisplay:10.37,2013-12-19 04:20:00,
2013-12-18 23:25:00,24.8,16.7,30.11,SW,229,0.1,6.9,71,0.00,CLR,,0.06,WeatherDisplay:10.37,2013-12-19 04:25:00,
2013-12-18 23:30:00,24.5,16.4,30.11,SW,232,0.0,0.0,71,0.00,CLR,,0.06,WeatherDisplay:10.37,2013-12-19 04:30:00,
2013-12-18 23:35:00,24.2,16.1,30.11,SW,232,0.0,0.0,71,0.00,CLR,,0.06,WeatherDisplay:10.37,2013-12-19 04:35:00,
2013-12-18 23:40:00,23.9,16.2,30.12,SW,232,0.0,0.0,72,0.00,CLR,,0.06,WeatherDisplay:10.37,2013-12-19 04:40:00,
2013-12-18 23:45:00,23.9,16.5,30.12,SW,233,0.0,0.0,73,0.00,CLR,,0.06,WeatherDisplay:10.37,2013-12-19 04:45:00,
2013-12-18 23:50:00,24.1,16.4,30.12,SW,236,0.0,0.0,72,0.00,CLR,,0.06,WeatherDisplay:10.37,2013-12-19 04:50:00,
2013-12-18 23:55:00,23.9,16.5,30.12,SSW,200,0.0,0.0,73,0.00,CLR,,0.06,WeatherDisplay:10.37,2013-12-19 04:55:00,